Time;durP1;ratioP1;P1;durP2;ratioP2;P2;SDS_P1;SDS_P2;PMS_P1;PMS_P2;Temp;Humidity;BMP_temperature;BMP_pressure;BME280_temperature;BME280_humidity;BME280_pressure;Samples;Min_cycle;Max_cycle;Signal;HPM_P1;HPM_P2
2023/11/10 00:00:40;;;;;;;8.85;6.45;;;;;;;;;;4974143;28;20046;-65
2023/11/10 00:03:05;;;;;;;11.90;7.35;;;;;;;;;;4957972;28;20043;-65
2023/11/10 00:05:32;;;;;;;13.55;7.63;;;;;;;;;;4973752;28;20066;-65
2023/11/10 00:07:57;;;;;;;11.52;7.07;;;;;;;;;;4958236;28;20054;-66
2023/11/10 00:10:23;;;;;;;12.85;6.70;;;;;;;;;;4974964;28;20038;-65
2023/11/10 00:12:49;;;;;;;10.45;6.63;;;;;;;;;;4974671;28;20113;-66
2023/11/10 00:15:15;;;;;;;14.20;7.10;;;;;;;;;;4974619;28;20042;-65
2023/11/10 00:17:41;;;;;;;13.23;7.03;;;;;;;;;;4973853;28;20043;-65
2023/11/10 00:20:09;;;;;;;16.48;7.22;;;;;;;;;;4973868;28;20221;-65
2023/11/10 00:22:35;;;;;;;8.93;6.70;;;;;;;;;;4974085;28;20072;-65
2023/11/10 00:25:01;;;;;;;11.85;7.07;;;;;;;;;;4957541;28;20038;-68
2023/11/10 00:27:26;;;;;;;13.65;7.97;;;;;;;;;;4973828;28;20113;-65
2023/11/10 00:29:53;;;;;;;12.32;7.82;;;;;;;;;;4989656;28;20030;-66
2023/11/10 00:32:18;;;;;;;13.02;7.82;;;;;;;;;;4973462;28;20497;-66
2023/11/10 00:34:44;;;;;;;11.57;7.65;;;;;;;;;;4957724;28;20051;-65
2023/11/10 00:37:10;;;;;;;13.20;8.23;;;;;;;;;;4957404;28;20035;-65
2023/11/10 00:39:36;;;;;;;12.43;7.65;;;;;;;;;;4957302;28;20070;-65
2023/11/10 00:42:02;;;;;;;13.77;8.32;;;;;;;;;;4957126;28;20473;-66
2023/11/10 00:44:28;;;;;;;12.77;8.20;;;;;;;;;;4957567;28;20043;-65
2023/11/10 00:46:54;;;;;;;18.95;9.35;;;;;;;;;;4973260;28;20125;-64
2023/11/10 00:49:20;;;;;;;15.13;9.13;;;;;;;;;;4957029;28;20030;-65
2023/11/10 00:51:45;;;;;;;14.80;8.75;;;;;;;;;;4973950;28;20403;-65
2023/11/10 00:54:11;;;;;;;18.27;9.73;;;;;;;;;;4957037;28;20380;-65
2023/11/10 00:56:37;;;;;;;20.10;9.55;;;;;;;;;;4972790;28;20069;-65
2023/11/10 00:59:03;;;;;;;21.58;11.02;;;;;;;;;;4922621;28;20487;-65
2023/11/10 01:01:33;;;;;;;22.35;9.75;;;;;;;;;;4970923;28;20047;-65
2023/11/10 01:03:58;;;;;;;18.50;9.98;;;;;;;;;;4972056;28;20062;-65
2023/11/10 01:06:24;;;;;;;22.10;10.23;;;;;;;;;;4954922;28;20046;-65
2023/11/10 01:08:50;;;;;;;19.85;10.05;;;;;;;;;;4954725;28;20043;-65
2023/11/10 01:11:15;;;;;;;20.98;10.20;;;;;;;;;;4954135;28;20044;-65
2023/11/10 01:13:41;;;;;;;16.55;9.82;;;;;;;;;;4951602;29;20102;-65
2023/11/10 01:16:07;;;;;;;17.35;9.68;;;;;;;;;;4953410;29;20035;-65
2023/11/10 01:18:33;;;;;;;29.05;11.30;;;;;;;;;;4953709;29;20473;-65
2023/11/10 01:20:59;;;;;;;21.52;10.15;;;;;;;;;;4953599;29;20055;-66
2023/11/10 01:23:26;;;;;;;20.48;10.05;;;;;;;;;;4954347;28;20129;-66
2023/11/10 01:25:51;;;;;;;18.95;10.35;;;;;;;;;;4954147;28;20032;-66
2023/11/10 01:28:18;;;;;;;16.67;9.77;;;;;;;;;;4937386;29;20425;-65
2023/11/10 01:30:44;;;;;;;20.77;9.57;;;;;;;;;;4953065;29;20170;-66
2023/11/10 01:33:10;;;;;;;18.50;9.13;;;;;;;;;;4937327;29;20051;-65
2023/11/10 01:35:35;;;;;;;19.92;9.55;;;;;;;;;;4953202;29;20047;-66
2023/11/10 01:38:01;;;;;;;17.40;9.43;;;;;;;;;;4953298;29;20082;-65
2023/11/10 01:40:28;;;;;;;15.23;9.45;;;;;;;;;;4937075;29;20485;-66
2023/11/10 01:42:54;;;;;;;17.20;9.27;;;;;;;;;;4937134;29;20047;-65
2023/11/10 01:45:19;;;;;;;18.33;9.50;;;;;;;;;;4937032;28;20042;-65
2023/11/10 01:47:46;;;;;;;13.43;8.80;;;;;;;;;;4937117;29;20422;-66
2023/11/10 01:50:13;;;;;;;20.02;8.75;;;;;;;;;;4937158;29;20070;-65
2023/11/10 01:52:41;;;;;;;12.77;8.57;;;;;;;;;;4936892;29;20035;-65
2023/11/10 01:55:14;;;;;;;14.65;8.68;;;;;;;;;;4936956;29;20031;-65
2023/11/10 01:57:39;;;;;;;15.07;8.95;;;;;;;;;;4953547;28;20110;-65
2023/11/10 02:00:05;;;;;;;14.30;8.88;;;;;;;;;;4936984;29;20074;-65
2023/11/10 02:02:37;;;;;;;17.33;9.25;;;;;;;;;;4953747;28;20065;-66
2023/11/10 02:05:03;;;;;;;15.88;8.98;;;;;;;;;;4936893;29;20035;-66
2023/11/10 02:07:29;;;;;;;16.50;8.45;;;;;;;;;;4952801;28;20043;-65
2023/11/10 02:09:54;;;;;;;18.23;8.85;;;;;;;;;;4936405;29;20039;-65
2023/11/10 02:12:21;;;;;;;16.98;9.30;;;;;;;;;;4953807;28;20039;-65
2023/11/10 02:14:47;;;;;;;15.80;8.25;;;;;;;;;;4953513;28;20031;-65
2023/11/10 02:17:14;;;;;;;14.35;8.40;;;;;;;;;;4952944;28;20054;-64
2023/11/10 02:19:40;;;;;;;15.38;8.10;;;;;;;;;;4952726;29;20133;-66
2023/11/10 02:22:20;;;;;;;12.83;7.50;;;;;;;;;;4952771;29;20039;-67
2023/11/10 02:24:47;;;;;;;13.60;7.90;;;;;;;;;;4936959;29;20046;-65
2023/11/10 02:27:12;;;;;;;16.17;8.60;;;;;;;;;;4952712;29;20057;-65
2023/11/10 02:29:39;;;;;;;14.25;8.00;;;;;;;;;;4953043;28;20039;-66
2023/11/10 02:32:05;;;;;;;18.15;8.85;;;;;;;;;;4952701;28;20039;-65
2023/11/10 02:34:31;;;;;;;12.65;8.23;;;;;;;;;;4952207;29;20122;-65
2023/11/10 02:36:57;;;;;;;15.60;7.70;;;;;;;;;;4951625;29;20129;-65
2023/11/10 02:39:23;;;;;;;14.85;7.70;;;;;;;;;;4936296;29;20035;-65
2023/11/10 02:41:52;;;;;;;15.05;7.68;;;;;;;;;;4953270;28;20183;-64
2023/11/10 02:44:18;;;;;;;12.48;7.38;;;;;;;;;;4936415;29;20469;-65
2023/11/10 02:46:43;;;;;;;10.90;7.10;;;;;;;;;;4936340;28;20049;-65
2023/11/10 02:49:09;;;;;;;12.52;7.97;;;;;;;;;;4952342;29;20418;-66
2023/11/10 02:51:34;;;;;;;14.13;7.40;;;;;;;;;;4952594;29;20505;-65
2023/11/10 02:54:00;;;;;;;13.02;6.70;;;;;;;;;;4936220;28;20031;-65
2023/11/10 02:56:28;;;;;;;10.55;5.53;;;;;;;;;;4952032;29;20062;-66
2023/11/10 02:58:54;;;;;;;14.20;6.00;;;;;;;;;;4952181;29;20059;-65
2023/11/10 03:01:20;;;;;;;11.38;5.32;;;;;;;;;;4951970;28;20061;-66
2023/11/10 03:03:46;;;;;;;8.88;6.28;;;;;;;;;;4952122;29;20039;-65
2023/11/10 03:06:12;;;;;;;14.13;5.47;;;;;;;;;;4953189;28;20049;-66
2023/11/10 03:08:37;;;;;;;9.95;5.30;;;;;;;;;;4953453;28;20122;-66
2023/11/10 03:11:03;;;;;;;8.48;4.97;;;;;;;;;;4952144;29;20066;-65
2023/11/10 03:13:29;;;;;;;12.05;4.85;;;;;;;;;;4936128;29;20035;-65
2023/11/10 03:15:54;;;;;;;10.07;5.47;;;;;;;;;;4936119;29;20046;-66
2023/11/10 03:18:20;;;;;;;9.20;4.82;;;;;;;;;;4952003;29;20035;-65
2023/11/10 03:20:47;;;;;;;6.13;4.40;;;;;;;;;;4935698;29;20074;-65
2023/11/10 03:23:12;;;;;;;12.63;5.03;;;;;;;;;;4956197;28;20454;-66
2023/11/10 03:25:38;;;;;;;6.40;4.30;;;;;;;;;;4955602;28;20055;-65
2023/11/10 03:28:04;;;;;;;8.60;4.45;;;;;;;;;;4944162;28;20042;-65
2023/11/10 03:30:29;;;;;;;7.10;4.53;;;;;;;;;;4966163;28;20863;-67
2023/11/10 03:32:55;;;;;;;9.95;4.78;;;;;;;;;;4939213;29;20035;-66
2023/11/10 03:35:21;;;;;;;10.27;4.78;;;;;;;;;;4944079;28;20065;-67
2023/11/10 03:37:46;;;;;;;7.05;4.50;;;;;;;;;;4964336;28;20039;-66
2023/11/10 03:40:14;;;;;;;9.65;4.50;;;;;;;;;;4958059;28;20042;-66
2023/11/10 03:42:41;;;;;;;7.75;4.10;;;;;;;;;;4974521;28;20043;-66
2023/11/10 03:45:08;;;;;;;12.05;4.20;;;;;;;;;;4926670;28;20463;-65
2023/11/10 03:47:33;;;;;;;8.93;4.32;;;;;;;;;;4968999;28;20378;-65
2023/11/10 03:49:59;;;;;;;9.38;5.53;;;;;;;;;;4948119;28;20027;-65
2023/11/10 03:52:25;;;;;;;6.57;4.30;;;;;;;;;;4938534;29;20043;-65
2023/11/10 03:54:50;;;;;;;6.22;4.10;;;;;;;;;;4938652;28;20046;-67
2023/11/10 03:57:16;;;;;;;10.25;3.72;;;;;;;;;;4947170;28;20037;-66
2023/11/10 03:59:41;;;;;;;5.97;4.13;;;;;;;;;;4951939;28;20039;-67
2023/11/10 04:02:12;;;;;;;6.20;3.67;;;;;;;;;;4943383;28;20035;-65
2023/11/10 04:04:38;;;;;;;6.95;3.83;;;;;;;;;;4961571;28;20039;-66
2023/11/10 04:07:04;;;;;;;5.50;4.05;;;;;;;;;;4955152;28;20026;-65
2023/11/10 04:09:35;;;;;;;5.13;3.90;;;;;;;;;;4948430;28;20042;-66
2023/11/10 04:12:02;;;;;;;6.60;4.25;;;;;;;;;;4971568;28;20394;-65
2023/11/10 04:14:27;;;;;;;11.10;3.78;;;;;;;;;;4946647;28;20031;-66
2023/11/10 04:16:53;;;;;;;10.10;4.32;;;;;;;;;;4964359;28;20023;-66
2023/11/10 04:19:19;;;;;;;9.95;4.13;;;;;;;;;;4947021;28;20122;-65
2023/11/10 04:21:44;;;;;;;9.35;3.92;;;;;;;;;;4946590;28;20053;-66
2023/11/10 04:24:11;;;;;;;9.32;3.85;;;;;;;;;;4964092;28;20523;-67
2023/11/10 04:26:37;;;;;;;9.93;4.63;;;;;;;;;;4944624;28;20036;-66
2023/11/10 04:29:05;;;;;;;9.95;4.97;;;;;;;;;;4941640;29;20940;-65
2023/11/10 04:31:31;;;;;;;10.45;6.10;;;;;;;;;;4972478;28;20034;-66
2023/11/10 04:33:57;;;;;;;14.95;9.63;;;;;;;;;;4970039;28;20031;-65
2023/11/10 04:36:22;;;;;;;38.28;23.80;;;;;;;;;;4946864;28;20034;-65
2023/11/10 04:38:49;;;;;;;11.20;6.00;;;;;;;;;;4964954;28;20131;-67
2023/11/10 04:41:15;;;;;;;9.85;4.45;;;;;;;;;;4946001;28;20043;-68
2023/11/10 04:43:40;;;;;;;5.75;4.10;;;;;;;;;;4973373;28;20030;-65
2023/11/10 04:46:07;;;;;;;6.63;3.75;;;;;;;;;;4951693;28;20038;-65
2023/11/10 04:48:32;;;;;;;7.30;4.43;;;;;;;;;;4971418;28;20047;-67
2023/11/10 04:51:02;;;;;;;7.35;4.00;;;;;;;;;;4971487;28;20046;-68
2023/11/10 04:53:28;;;;;;;7.78;3.78;;;;;;;;;;4967228;28;20469;-69
2023/11/10 04:55:54;;;;;;;6.63;3.70;;;;;;;;;;4970741;28;20058;-69
2023/11/10 04:58:19;;;;;;;9.50;3.72;;;;;;;;;;4972075;28;20381;-69
2023/11/10 05:00:45;;;;;;;8.90;4.30;;;;;;;;;;4970934;28;20392;-69
2023/11/10 05:03:12;;;;;;;8.15;3.78;;;;;;;;;;4972316;28;20039;-72
2023/11/10 05:05:38;;;;;;;8.45;3.78;;;;;;;;;;4955193;28;20090;-69
2023/11/10 05:08:03;;;;;;;9.75;3.83;;;;;;;;;;4971105;28;20503;-70
2023/11/10 05:10:32;;;;;;;10.02;3.47;;;;;;;;;;4970592;28;20031;-72
2023/11/10 05:12:57;;;;;;;9.48;3.53;;;;;;;;;;4971375;28;20133;-71
2023/11/10 05:15:23;;;;;;;7.45;3.40;;;;;;;;;;4971496;28;20417;-72
2023/11/10 05:17:50;;;;;;;5.55;3.25;;;;;;;;;;4971294;28;20043;-69
2023/11/10 05:20:17;;;;;;;6.18;3.47;;;;;;;;;;4971857;28;20051;-68
2023/11/10 05:22:43;;;;;;;6.18;3.30;;;;;;;;;;4972174;28;20039;-69
2023/11/10 05:25:12;;;;;;;4.88;3.30;;;;;;;;;;4970802;28;20097;-69
2023/11/10 05:27:57;;;;;;;4.50;3.00;;;;;;;;;;4971708;28;20042;-69
2023/11/10 05:30:24;;;;;;;7.78;3.50;;;;;;;;;;4954925;28;20484;-69
2023/11/10 05:32:50;;;;;;;6.22;3.33;;;;;;;;;;4971120;28;20066;-69
2023/11/10 05:35:15;;;;;;;8.90;3.80;;;;;;;;;;4970989;28;20062;-72
2023/11/10 05:37:41;;;;;;;6.65;3.50;;;;;;;;;;4971034;28;20100;-70
2023/11/10 05:40:09;;;;;;;5.25;3.67;;;;;;;;;;4971480;28;20082;-70
2023/11/10 05:42:36;;;;;;;5.30;3.42;;;;;;;;;;4970939;28;20222;-70
2023/11/10 05:45:02;;;;;;;9.18;3.95;;;;;;;;;;4970340;28;20031;-70
2023/11/10 05:47:31;;;;;;;6.43;3.95;;;;;;;;;;4970991;28;20050;-73
2023/11/10 05:49:56;;;;;;;5.95;3.50;;;;;;;;;;4970476;28;20050;-71
2023/11/10 05:52:23;;;;;;;5.93;3.20;;;;;;;;;;4971970;28;20054;-72
2023/11/10 05:54:49;;;;;;;8.38;3.38;;;;;;;;;;4971375;28;20773;-71
2023/11/10 05:57:15;;;;;;;8.13;3.72;;;;;;;;;;4971034;28;20039;-71
2023/11/10 05:59:41;;;;;;;4.63;3.35;;;;;;;;;;4969875;28;20053;-71
2023/11/10 06:02:07;;;;;;;5.28;3.20;;;;;;;;;;4954438;28;20062;-71
2023/11/10 06:04:33;;;;;;;6.40;3.20;;;;;;;;;;4971162;28;20059;-71
2023/11/10 06:06:58;;;;;;;3.92;3.30;;;;;;;;;;4971084;28;20073;-71
2023/11/10 06:09:25;;;;;;;8.38;3.10;;;;;;;;;;4970959;28;20425;-69
2023/11/10 06:11:53;;;;;;;7.45;3.35;;;;;;;;;;4956172;28;20473;-70
2023/11/10 06:14:21;;;;;;;6.65;3.05;;;;;;;;;;4971972;28;20039;-71
2023/11/10 06:16:49;;;;;;;7.75;3.58;;;;;;;;;;4972296;28;20038;-69
2023/11/10 06:19:19;;;;;;;5.63;2.85;;;;;;;;;;4970231;28;20070;-69
2023/11/10 06:21:45;;;;;;;6.00;3.03;;;;;;;;;;4972029;28;20042;-72
2023/11/10 06:24:11;;;;;;;5.85;2.92;;;;;;;;;;4971550;28;20069;-71
2023/11/10 06:26:36;;;;;;;4.28;3.08;;;;;;;;;;4986725;28;20432;-72
2023/11/10 06:29:03;;;;;;;4.45;2.80;;;;;;;;;;4953821;28;20039;-71
2023/11/10 06:31:29;;;;;;;5.00;3.10;;;;;;;;;;4954221;28;20100;-71
2023/11/10 06:33:54;;;;;;;8.07;3.00;;;;;;;;;;4970267;28;20031;-72
2023/11/10 06:36:20;;;;;;;8.02;3.60;;;;;;;;;;4954297;28;20043;-71
2023/11/10 06:38:46;;;;;;;4.13;3.25;;;;;;;;;;4971127;28;20027;-71
2023/11/10 06:41:12;;;;;;;4.07;3.20;;;;;;;;;;4971656;28;20116;-73
2023/11/10 06:43:38;;;;;;;7.82;3.50;;;;;;;;;;4955562;28;20034;-72
2023/11/10 06:46:04;;;;;;;5.40;3.30;;;;;;;;;;4971361;28;20540;-74
2023/11/10 06:48:29;;;;;;;11.05;3.80;;;;;;;;;;4971272;28;20050;-72
2023/11/10 06:50:55;;;;;;;8.10;3.80;;;;;;;;;;4969872;28;20373;-72
2023/11/10 06:53:21;;;;;;;7.85;3.17;;;;;;;;;;4970620;28;20492;-72
2023/11/10 06:55:46;;;;;;;6.47;3.38;;;;;;;;;;4971644;28;20098;-73
2023/11/10 06:58:12;;;;;;;7.45;3.25;;;;;;;;;;4973337;28;20073;-74
2023/11/10 07:00:37;;;;;;;4.10;3.20;;;;;;;;;;4975365;28;20450;-72
2023/11/10 07:03:11;;;;;;;8.23;3.63;;;;;;;;;;4974680;28;20189;-73
2023/11/10 07:05:38;;;;;;;6.13;3.60;;;;;;;;;;4973863;28;20034;-73
2023/11/10 07:08:09;;;;;;;9.07;3.40;;;;;;;;;;4974707;28;20035;-73
2023/11/10 07:10:35;;;;;;;4.57;3.20;;;;;;;;;;4973612;28;20045;-73
2023/11/10 07:13:01;;;;;;;6.05;3.25;;;;;;;;;;4972777;28;20045;-73
2023/11/10 07:15:27;;;;;;;9.65;3.28;;;;;;;;;;4974916;28;20390;-73
2023/11/10 07:17:52;;;;;;;7.07;3.38;;;;;;;;;;4974917;28;20042;-73
2023/11/10 07:20:20;;;;;;;9.65;2.92;;;;;;;;;;4974340;28;20055;-70
2023/11/10 07:22:46;;;;;;;5.05;3.20;;;;;;;;;;4991265;28;20469;-72
2023/11/10 07:25:13;;;;;;;6.97;3.20;;;;;;;;;;4973289;28;20030;-72
2023/11/10 07:27:38;;;;;;;3.95;2.80;;;;;;;;;;4974306;28;20045;-72
2023/11/10 07:30:05;;;;;;;6.68;3.10;;;;;;;;;;4956736;28;20061;-73
2023/11/10 07:32:31;;;;;;;7.70;3.20;;;;;;;;;;4973461;28;20134;-73
2023/11/10 07:34:57;;;;;;;5.97;3.28;;;;;;;;;;4974416;28;20444;-72
2023/11/10 07:37:22;;;;;;;5.57;3.22;;;;;;;;;;4974602;28;20043;-72
2023/11/10 07:39:48;;;;;;;6.57;3.63;;;;;;;;;;4973956;28;20046;-69
2023/11/10 07:42:14;;;;;;;6.45;3.63;;;;;;;;;;4974269;28;20053;-73
2023/11/10 07:44:40;;;;;;;6.20;3.60;;;;;;;;;;4975418;28;20049;-73
2023/11/10 07:47:06;;;;;;;8.70;3.28;;;;;;;;;;4977851;28;20034;-69
2023/11/10 07:49:32;;;;;;;7.35;3.80;;;;;;;;;;4974541;28;20421;-69
2023/11/10 07:51:58;;;;;;;9.80;3.20;;;;;;;;;;4958292;28;20117;-71
2023/11/10 07:54:24;;;;;;;7.63;3.60;;;;;;;;;;4957028;28;20154;-70
2023/11/10 07:56:50;;;;;;;7.85;3.92;;;;;;;;;;4972483;28;20051;-69
2023/11/10 07:59:16;;;;;;;10.10;3.38;;;;;;;;;;4974258;28;20051;-69
2023/11/10 08:01:44;;;;;;;6.80;3.47;;;;;;;;;;4959402;28;20054;-70
2023/11/10 08:04:10;;;;;;;5.55;3.47;;;;;;;;;;4972971;28;20034;-70
2023/11/10 08:06:38;;;;;;;7.47;3.20;;;;;;;;;;4973232;28;20469;-69
2023/11/10 08:09:04;;;;;;;6.28;3.47;;;;;;;;;;4970896;28;20108;-71
2023/11/10 08:11:30;;;;;;;9.05;3.63;;;;;;;;;;4973191;28;20125;-72
2023/11/10 08:13:56;;;;;;;8.30;3.33;;;;;;;;;;4972087;28;20142;-70
2023/11/10 08:16:22;;;;;;;8.85;3.95;;;;;;;;;;4956612;28;20071;-68
2023/11/10 08:18:48;;;;;;;9.20;3.90;;;;;;;;;;4973709;28;20038;-71
2023/11/10 08:21:17;;;;;;;4.18;3.30;;;;;;;;;;4956889;28;20054;-70
2023/11/10 08:23:43;;;;;;;9.88;3.20;;;;;;;;;;4965182;28;20046;-69
2023/11/10 08:26:08;;;;;;;3.70;3.03;;;;;;;;;;4952964;29;20493;-70
2023/11/10 08:28:34;;;;;;;5.97;3.60;;;;;;;;;;4953892;28;20049;-71
2023/11/10 08:31:00;;;;;;;4.53;3.30;;;;;;;;;;4952899;29;20039;-70
2023/11/10 08:33:26;;;;;;;6.35;3.85;;;;;;;;;;4952631;29;20492;-69
2023/11/10 08:35:52;;;;;;;8.40;3.92;;;;;;;;;;4952939;29;20127;-69
2023/11/10 08:38:18;;;;;;;7.13;3.85;;;;;;;;;;4954536;28;20039;-69
2023/11/10 08:40:44;;;;;;;12.30;4.75;;;;;;;;;;4954671;28;20375;-69
2023/11/10 08:43:10;;;;;;;5.00;4.00;;;;;;;;;;4952766;29;20053;-70
2023/11/10 08:45:36;;;;;;;12.95;4.82;;;;;;;;;;4953789;28;20050;-70
2023/11/10 08:48:02;;;;;;;9.80;4.63;;;;;;;;;;4953447;28;20513;-72
2023/11/10 08:50:28;;;;;;;6.80;4.10;;;;;;;;;;4953011;29;20070;-70
2023/11/10 08:52:54;;;;;;;8.45;3.83;;;;;;;;;;4951781;29;20529;-69
2023/11/10 08:55:21;;;;;;;6.60;3.78;;;;;;;;;;4953115;28;20037;-69
2023/11/10 08:57:47;;;;;;;9.23;3.97;;;;;;;;;;4952175;29;20067;-69
2023/11/10 09:00:17;;;;;;;6.35;3.90;;;;;;;;;;4952894;28;20495;-69
2023/11/10 09:02:43;;;;;;;;;;;;;;;;;;4952315;29;20043;-70
2023/11/10 09:05:12;;;;;;;7.78;4.10;;;;;;;;;;4951609;29;19914;-69
2023/11/10 09:07:39;;;;;;;8.77;4.35;;;;;;;;;;4951721;29;20482;-69
2023/11/10 09:10:05;;;;;;;4.78;3.60;;;;;;;;;;4951580;29;20035;-70
2023/11/10 11:51:11;;;;;;;9.60;5.40;;;;;;;;;;4918418;29;20147;-70
2023/11/10 11:53:37;;;;;;;8.25;5.20;;;;;;;;;;4935495;29;20070;-70
2023/11/10 11:56:03;;;;;;;7.85;5.45;;;;;;;;;;4935307;29;20046;-70
2023/11/10 11:58:29;;;;;;;7.47;4.93;;;;;;;;;;4919588;29;20035;-70
2023/11/10 12:00:54;;;;;;;11.57;5.45;;;;;;;;;;4936787;29;20044;-71
2023/11/10 12:03:20;;;;;;;12.88;5.80;;;;;;;;;;4936259;29;20055;-71
2023/11/10 12:05:47;;;;;;;12.57;6.38;;;;;;;;;;4935160;29;20046;-70
2023/11/10 12:08:12;;;;;;;9.68;5.40;;;;;;;;;;4935096;29;20059;-70
2023/11/10 12:10:38;;;;;;;13.93;5.53;;;;;;;;;;4918946;29;20078;-70
2023/11/10 12:13:07;;;;;;;16.55;5.75;;;;;;;;;;4919365;29;20481;-71
2023/11/10 12:15:36;;;;;;;10.25;5.40;;;;;;;;;;4935398;29;20040;-71
2023/11/10 12:18:01;;;;;;;11.82;5.93;;;;;;;;;;4935334;29;20480;-70
2023/11/10 12:20:30;;;;;;;13.20;5.43;;;;;;;;;;4936402;29;20047;-70
2023/11/10 12:22:57;;;;;;;13.93;5.55;;;;;;;;;;4935362;29;20071;-70
2023/11/10 12:25:23;;;;;;;7.30;4.85;;;;;;;;;;4935141;29;20418;-70
2023/11/10 12:27:49;;;;;;;12.63;5.25;;;;;;;;;;4936109;29;20032;-70
2023/11/10 12:30:15;;;;;;;19.48;6.55;;;;;;;;;;4919112;29;20124;-70
2023/11/10 12:32:43;;;;;;;12.25;6.05;;;;;;;;;;4935174;29;20508;-71
2023/11/10 12:35:09;;;;;;;11.35;6.15;;;;;;;;;;4936069;29;20095;-71
2023/11/10 12:37:38;;;;;;;9.13;5.15;;;;;;;;;;4919130;29;20075;-71
2023/11/10 12:40:17;;;;;;;15.32;5.13;;;;;;;;;;4935129;29;20036;-71
2023/11/10 12:42:47;;;;;;;21.75;5.38;;;;;;;;;;4934747;29;20043;-71
2023/11/10 12:45:14;;;;;;;11.82;5.18;;;;;;;;;;4934748;29;20522;-70
2023/11/10 12:47:43;;;;;;;11.70;5.07;;;;;;;;;;4935755;29;20098;-71
2023/11/10 12:50:19;;;;;;;15.25;5.00;;;;;;;;;;4935892;29;20036;-72
2023/11/10 12:52:52;;;;;;;14.00;5.60;;;;;;;;;;4919020;29;20056;-70
2023/11/10 12:55:19;;;;;;;10.30;5.25;;;;;;;;;;4934181;29;20040;-70
2023/11/10 12:57:47;;;;;;;13.98;5.80;;;;;;;;;;4933280;29;20120;-69
2023/11/10 13:00:15;;;;;;;11.45;5.70;;;;;;;;;;4934112;29;20054;-70
2023/11/10 13:02:42;;;;;;;11.70;5.28;;;;;;;;;;4935002;29;20040;-70
2023/11/10 13:05:08;;;;;;;18.95;5.22;;;;;;;;;;4934518;29;20054;-70
2023/11/10 13:07:34;;;;;;;14.25;5.40;;;;;;;;;;4934445;29;20074;-69
2023/11/10 13:10:00;;;;;;;9.98;5.13;;;;;;;;;;4935592;29;20047;-70
2023/11/10 13:12:26;;;;;;;12.57;4.70;;;;;;;;;;4934655;29;20039;-70
2023/11/10 13:14:51;;;;;;;6.55;4.38;;;;;;;;;;4934125;29;20027;-69
2023/11/10 13:17:18;;;;;;;11.20;5.13;;;;;;;;;;4934174;29;20055;-70
2023/11/10 13:19:44;;;;;;;8.18;4.65;;;;;;;;;;4934018;29;20450;-69
2023/11/10 13:22:14;;;;;;;7.03;4.22;;;;;;;;;;4934375;29;20051;-70
2023/11/10 13:24:40;;;;;;;10.63;4.40;;;;;;;;;;4918558;29;20047;-69
2023/11/10 13:27:06;;;;;;;9.30;4.35;;;;;;;;;;4918733;29;20134;-70
2023/11/10 13:29:32;;;;;;;8.50;4.40;;;;;;;;;;4934108;29;20312;-69
2023/11/10 13:31:57;;;;;;;9.85;4.85;;;;;;;;;;4935390;29;20032;-70
2023/11/10 13:34:26;;;;;;;9.63;4.65;;;;;;;;;;4934262;29;20105;-70
2023/11/10 13:36:52;;;;;;;13.80;4.95;;;;;;;;;;4903037;29;20050;-70
2023/11/10 13:39:20;;;;;;;16.02;4.75;;;;;;;;;;4935268;29;20375;-70
2023/11/10 13:41:46;;;;;;;13.40;5.15;;;;;;;;;;4934844;29;20168;-70
2023/11/10 13:44:12;;;;;;;13.25;5.82;;;;;;;;;;4933886;29;20130;-69
2023/11/10 13:46:38;;;;;;;9.13;5.70;;;;;;;;;;4934916;29;20168;-70
2023/11/10 13:49:04;;;;;;;14.73;7.00;;;;;;;;;;4933824;29;20152;-70
2023/11/10 13:51:30;;;;;;;16.38;7.43;;;;;;;;;;4933864;29;20067;-70
2023/11/10 13:53:55;;;;;;;15.95;6.70;;;;;;;;;;4933640;29;20382;-70
2023/11/10 13:56:21;;;;;;;19.17;7.10;;;;;;;;;;4918242;29;20458;-70
2023/11/10 13:58:47;;;;;;;10.68;6.15;;;;;;;;;;4933821;29;20055;-70
2023/11/10 14:01:13;;;;;;;18.38;7.30;;;;;;;;;;4933646;29;20047;-71
2023/11/10 14:03:39;;;;;;;14.05;7.55;;;;;;;;;;4934555;29;20125;-70
2023/11/10 14:06:09;;;;;;;18.92;7.78;;;;;;;;;;4933088;29;20039;-69
2023/11/10 14:08:38;;;;;;;13.93;7.55;;;;;;;;;;4933488;29;20039;-70
2023/11/10 14:11:08;;;;;;;18.27;7.22;;;;;;;;;;4933624;29;20047;-68
2023/11/10 14:13:38;;;;;;;13.73;7.13;;;;;;;;;;4933572;29;20095;-69
2023/11/10 14:16:09;;;;;;;15.77;7.72;;;;;;;;;;4933802;29;20039;-70
2023/11/10 14:18:37;;;;;;;10.38;6.43;;;;;;;;;;4917536;29;20470;-70
2023/11/10 14:21:03;;;;;;;15.65;7.13;;;;;;;;;;4917311;29;20454;-71
2023/11/10 14:23:30;;;;;;;13.50;6.82;;;;;;;;;;4933224;29;20079;-70
2023/11/10 14:25:56;;;;;;;14.98;6.95;;;;;;;;;;4933152;29;20050;-70
2023/11/10 14:28:23;;;;;;;12.40;6.50;;;;;;;;;;4932745;29;20048;-70
2023/11/10 14:30:49;;;;;;;19.65;7.13;;;;;;;;;;4933256;29;20027;-70
2023/11/10 14:33:15;;;;;;;15.32;8.82;;;;;;;;;;4917715;29;20078;-70
2023/11/10 14:35:41;;;;;;;15.70;8.23;;;;;;;;;;4933463;29;20040;-70
2023/11/10 14:38:08;;;;;;;14.27;8.13;;;;;;;;;;4934375;29;20050;-69
2023/11/10 14:40:34;;;;;;;25.50;9.23;;;;;;;;;;4934250;29;20142;-70
2023/11/10 14:43:02;;;;;;;17.88;10.13;;;;;;;;;;4934226;29;20050;-70
2023/11/10 14:45:29;;;;;;;26.45;11.38;;;;;;;;;;4934517;29;20135;-70
2023/11/10 14:47:55;;;;;;;20.85;11.73;;;;;;;;;;4917484;29;20043;-70
2023/11/10 14:50:37;;;;;;;28.50;12.60;;;;;;;;;;4933409;29;20035;-69
2023/11/10 14:53:08;;;;;;;20.20;10.93;;;;;;;;;;4933700;29;20052;-69
2023/11/10 14:55:34;;;;;;;;;;;;;;;;;;4934178;29;20503;-69
2023/11/10 14:58:00;;;;;;;23.63;9.20;;;;;;;;;;4933189;29;19915;-70
2023/11/10 15:00:26;;;;;;;22.08;9.63;;;;;;;;;;4933220;29;20122;-70
2023/11/10 15:02:52;;;;;;;17.88;9.10;;;;;;;;;;4933308;29;20489;-70
2023/11/10 15:05:19;;;;;;;18.90;8.95;;;;;;;;;;4933152;29;20043;-69
2023/11/10 15:07:45;;;;;;;16.05;8.23;;;;;;;;;;4932993;29;20036;-69
2023/11/10 15:10:11;;;;;;;11.63;7.57;;;;;;;;;;4934100;29;20050;-69
2023/11/10 15:12:37;;;;;;;22.60;8.65;;;;;;;;;;4933582;29;20036;-70
2023/11/10 15:15:03;;;;;;;26.20;7.57;;;;;;;;;;4917399;29;20390;-69
2023/11/10 15:17:30;;;;;;;15.52;8.18;;;;;;;;;;4934732;29;20126;-69
2023/11/10 15:19:58;;;;;;;17.90;8.40;;;;;;;;;;4936583;29;20443;-70
2023/11/10 15:22:24;;;;;;;18.85;7.88;;;;;;;;;;4936772;29;20051;-70
2023/11/10 15:24:51;;;;;;;21.27;8.52;;;;;;;;;;4920534;29;20035;-69
2023/11/10 15:27:16;;;;;;;17.35;7.95;;;;;;;;;;4936617;29;20059;-69
2023/11/10 15:29:42;;;;;;;16.98;8.20;;;;;;;;;;4936337;29;20075;-68
2023/11/10 15:32:10;;;;;;;17.45;8.48;;;;;;;;;;4937622;29;20386;-69
2023/11/10 15:34:36;;;;;;;15.25;8.15;;;;;;;;;;4936409;29;20126;-69
2023/11/10 15:37:05;;;;;;;12.25;8.13;;;;;;;;;;4937378;29;20035;-69
2023/11/10 15:39:33;;;;;;;17.25;8.38;;;;;;;;;;4936171;29;20043;-69
2023/11/10 15:41:59;;;;;;;15.77;7.90;;;;;;;;;;4936954;29;20142;-70
2023/11/10 15:44:24;;;;;;;11.32;7.20;;;;;;;;;;4936222;29;20102;-70
2023/11/10 15:46:51;;;;;;;15.15;7.45;;;;;;;;;;4936366;29;20046;-70
2023/11/10 15:49:17;;;;;;;21.33;8.48;;;;;;;;;;4920314;29;20099;-70
2023/11/10 15:51:43;;;;;;;15.52;7.22;;;;;;;;;;4920296;29;20498;-69
2023/11/10 15:54:11;;;;;;;15.63;7.97;;;;;;;;;;4936346;29;20039;-70
2023/11/10 15:56:37;;;;;;;16.23;7.93;;;;;;;;;;4920253;29;20040;-70
2023/11/10 15:59:03;;;;;;;15.77;8.07;;;;;;;;;;4936630;29;20071;-70
2023/11/10 16:01:32;;;;;;;22.67;8.60;;;;;;;;;;4935637;29;20086;-69
2023/11/10 16:03:58;;;;;;;18.58;8.20;;;;;;;;;;4935534;29;20458;-70
2023/11/10 16:06:24;;;;;;;13.90;8.32;;;;;;;;;;4936424;29;20042;-70
2023/11/10 16:08:50;;;;;;;20.65;9.32;;;;;;;;;;4919944;29;20040;-70
2023/11/10 16:11:16;;;;;;;18.95;8.98;;;;;;;;;;4936684;29;20039;-69
2023/11/10 16:13:42;;;;;;;22.35;8.82;;;;;;;;;;4936444;29;20402;-69
2023/11/10 16:16:11;;;;;;;23.02;9.70;;;;;;;;;;4935688;29;20051;-70
2023/11/10 16:18:37;;;;;;;22.52;9.52;;;;;;;;;;4935707;29;20122;-69
2023/11/10 16:21:06;;;;;;;16.77;9.77;;;;;;;;;;4935197;29;20158;-70
2023/11/10 16:23:32;;;;;;;20.58;9.77;;;;;;;;;;4935198;29;20040;-69
2023/11/10 16:25:58;;;;;;;23.50;10.35;;;;;;;;;;4936413;29;20050;-70
2023/11/10 16:28:26;;;;;;;18.52;8.43;;;;;;;;;;4919202;29;20040;-69
2023/11/10 16:30:53;;;;;;;14.80;7.82;;;;;;;;;;4935205;29;20043;-70
2023/11/10 16:33:19;;;;;;;14.90;8.43;;;;;;;;;;4935721;29;20036;-70
2023/11/10 16:35:45;;;;;;;16.63;7.28;;;;;;;;;;4935133;29;20039;-70
2023/11/10 16:38:13;;;;;;;16.00;7.93;;;;;;;;;;4971133;28;20169;-71
2023/11/10 16:40:38;;;;;;;17.90;8.43;;;;;;;;;;4973602;28;20058;-70
2023/11/10 16:43:04;;;;;;;19.85;8.10;;;;;;;;;;4974330;28;20031;-69
2023/11/10 16:45:30;;;;;;;20.88;8.40;;;;;;;;;;4957430;28;20058;-71
2023/11/10 16:47:55;;;;;;;21.02;7.57;;;;;;;;;;4957490;28;20058;-70
2023/11/10 16:50:22;;;;;;;15.02;7.82;;;;;;;;;;4974350;28;20117;-70
2023/11/10 16:52:48;;;;;;;16.98;7.97;;;;;;;;;;4972990;28;20485;-70
2023/11/10 16:55:14;;;;;;;13.90;8.35;;;;;;;;;;4972689;28;20097;-68
2023/11/10 16:57:39;;;;;;;15.75;7.97;;;;;;;;;;4973323;28;20101;-71
2023/11/10 17:00:12;;;;;;;18.50;8.30;;;;;;;;;;4973361;28;20043;-71
2023/11/10 17:02:38;;;;;;;15.57;8.20;;;;;;;;;;4957019;28;20073;-72
2023/11/10 17:05:04;;;;;;;16.45;7.88;;;;;;;;;;4973192;28;20129;-71
2023/11/10 17:07:35;;;;;;;14.18;8.38;;;;;;;;;;4957146;28;20487;-71
2023/11/10 17:10:01;;;;;;;16.67;8.10;;;;;;;;;;4973730;28;20049;-71